Time;durP1;ratioP1;P1;durP2;ratioP2;P2;SDS_P1;SDS_P2;PMS_P1;PMS_P2;Temp;Humidity;BMP_temperature;BMP_pressure;BME280_temperature;BME280_humidity;BME280_pressure;Samples;Min_cycle;Max_cycle;Signal;HPM_P1;HPM_P2
2023/04/18 00:01:33;;;;;;;39.85;23.20;;;;;;;7.72;100.00;102798.97;5075065;28;20681;-72
2023/04/18 00:04:00;;;;;;;33.40;21.60;;;;;;;7.71;100.00;102794.53;5080052;28;20043;-73
2023/04/18 00:06:25;;;;;;;;;;;;;;;7.67;100.00;102798.50;5065886;28;20036;-75
2023/04/18 00:08:51;;;;;;;38.22;22.75;;;;;;;7.64;100.00;102790.59;5081666;28;19908;-72
2023/04/18 00:11:16;;;;;;;38.08;21.98;;;;;;;7.64;100.00;102785.16;5079626;28;20067;-73
2023/04/18 00:13:42;;;;;;;39.28;22.92;;;;;;;7.63;100.00;102780.69;5068394;28;20036;-73
2023/04/18 00:16:07;;;;;;;37.92;22.50;;;;;;;7.56;100.00;102791.25;5062249;28;20115;-72
2023/04/18 00:18:33;;;;;;;35.85;23.65;;;;;;;7.54;100.00;102787.78;5047249;28;20055;-73
2023/04/18 00:20:58;;;;;;;40.40;23.90;;;;;;;7.54;100.00;102789.66;5082557;28;20020;-73
2023/04/18 00:23:26;;;;;;;38.28;23.77;;;;;;;7.50;100.00;102790.91;5059861;28;20070;-73
2023/04/18 00:25:52;;;;;;;34.63;22.80;;;;;;;7.51;100.00;102793.50;5059557;28;20093;-70
2023/04/18 00:28:17;;;;;;;38.22;23.80;;;;;;;7.56;100.00;102793.09;5066438;28;20485;-71
2023/04/18 00:30:43;;;;;;;33.95;23.77;;;;;;;7.54;100.00;102793.22;5081104;28;20028;-73
2023/04/18 00:33:08;;;;;;;39.97;23.73;;;;;;;7.55;100.00;102794.97;5079558;28;20032;-73
2023/04/18 00:35:34;;;;;;;40.88;23.75;;;;;;;7.52;100.00;102787.06;5081828;28;20466;-72
2023/04/18 00:37:59;;;;;;;34.47;22.10;;;;;;;7.47;100.00;102783.84;5074443;28;20115;-73
2023/04/18 00:40:24;;;;;;;38.53;23.58;;;;;;;7.47;100.00;102785.72;5081917;28;20024;-73
2023/04/18 00:42:50;;;;;;;34.60;22.20;;;;;;;7.45;100.00;102782.25;5080213;28;20024;-73
2023/04/18 00:45:15;;;;;;;33.97;23.30;;;;;;;7.40;100.00;102781.75;5080920;28;20021;-74
2023/04/18 00:47:41;;;;;;;34.45;22.90;;;;;;;7.43;100.00;102784.25;5080294;28;20089;-74
2023/04/18 00:50:08;;;;;;;34.13;22.40;;;;;;;7.42;100.00;102779.78;5081324;28;20501;-73
2023/04/18 00:52:34;;;;;;;37.33;23.10;;;;;;;7.40;100.00;102782.66;5077505;28;20477;-72
2023/04/18 00:55:02;;;;;;;38.60;23.60;;;;;;;7.40;100.00;102781.75;5060516;28;20059;-73
2023/04/18 00:57:28;;;;;;;36.78;22.90;;;;;;;7.40;100.00;102773.59;5079678;28;20048;-73
2023/04/18 00:59:54;;;;;;;30.13;22.13;;;;;;;7.33;100.00;102777.84;5076335;28;20032;-73
2023/04/18 01:02:20;;;;;;;33.53;20.98;;;;;;;7.33;100.00;102777.84;5075593;28;20354;-73
2023/04/18 01:04:46;;;;;;;39.33;22.17;;;;;;;7.40;100.00;102779.03;5056948;28;20044;-73
2023/04/18 01:07:11;;;;;;;34.05;21.45;;;;;;;7.34;100.00;102765.94;5081646;28;20094;-73
2023/04/18 01:09:37;;;;;;;34.28;21.40;;;;;;;7.33;100.00;102770.53;5059820;28;20791;-73
2023/04/18 01:12:04;;;;;;;35.42;20.65;;;;;;;7.30;100.00;102781.69;5085365;28;20036;-72
2023/04/18 01:14:29;;;;;;;30.77;20.58;;;;;;;7.30;100.00;102776.22;5076727;28;20052;-72
2023/04/18 01:16:56;;;;;;;31.20;20.88;;;;;;;7.32;100.00;102781.56;5083461;28;20414;-71
2023/04/18 01:19:22;;;;;;;32.20;22.08;;;;;;;7.32;100.00;102770.66;5078934;28;20032;-71
2023/04/18 01:21:47;;;;;;;30.95;19.63;;;;;;;7.29;100.00;102774.50;5073671;28;20027;-71
2023/04/18 01:24:14;;;;;;;31.45;20.52;;;;;;;7.30;100.00;102769.91;5060797;28;20035;-71
2023/04/18 01:26:42;;;;;;;32.50;19.77;;;;;;;7.31;100.00;102771.66;5069091;28;20043;-72
2023/04/18 01:29:08;;;;;;;34.22;19.92;;;;;;;7.24;100.00;102767.69;5066800;28;20039;-77
2023/04/18 01:31:35;;;;;;;34.28;19.98;;;;;;;7.23;100.00;102764.13;5056469;28;20044;-72
2023/04/18 01:34:01;;;;;;;32.03;20.23;;;;;;;7.21;100.00;102757.06;5062137;28;20020;-72
2023/04/18 01:36:26;;;;;;;30.20;19.65;;;;;;;7.27;100.00;102762.84;5073773;28;20139;-72
2023/04/18 01:38:52;;;;;;;29.77;19.52;;;;;;;7.23;100.00;102766.84;5068287;28;20485;-71
2023/04/18 01:41:17;;;;;;;32.67;18.30;;;;;;;7.16;100.00;102751.13;5057414;28;20512;-71
2023/04/18 01:43:42;;;;;;;30.40;19.20;;;;;;;7.16;100.00;102751.13;5082225;28;20507;-73
2023/04/18 01:46:08;;;;;;;24.50;18.00;;;;;;;7.13;100.00;102754.09;5077323;28;20111;-73
2023/04/18 01:48:33;;;;;;;33.88;17.83;;;;;;;7.14;100.00;102754.00;5056792;28;20127;-73
2023/04/18 01:50:58;;;;;;;27.05;16.85;;;;;;;7.07;100.00;102762.81;5074698;28;20024;-73
2023/04/18 01:53:24;;;;;;;30.63;16.60;;;;;;;7.09;99.20;102763.53;5074202;28;20111;-73
2023/04/18 01:55:50;;;;;;;25.58;15.65;;;;;;;7.04;99.20;102757.63;5076395;28;20094;-73
2023/04/18 01:58:17;;;;;;;29.25;16.08;;;;;;;6.99;99.13;102757.13;5078422;28;20256;-73
2023/04/18 02:00:42;;;;;;;22.42;16.35;;;;;;;6.98;99.11;102766.28;5071875;28;20031;-75
2023/04/18 02:03:08;;;;;;;30.15;17.00;;;;;;;6.90;99.08;102757.91;5077945;28;20033;-73
2023/04/18 02:05:35;;;;;;;24.30;16.27;;;;;;;6.90;97.87;102760.63;5078354;28;20607;-73
2023/04/18 02:08:00;;;;;;;27.45;14.80;;;;;;;6.86;98.99;102757.28;5077447;28;20469;-73
2023/04/18 02:10:25;;;;;;;23.98;15.20;;;;;;;6.84;98.91;102774.75;5077283;28;20093;-72
2023/04/18 02:12:51;;;;;;;23.90;15.27;;;;;;;6.85;97.19;102757.41;5077613;28;20086;-72
2023/04/18 02:15:16;;;;;;;21.13;12.98;;;;;;;6.78;95.29;102765.22;5071275;28;20029;-73
2023/04/18 02:17:42;;;;;;;23.00;14.85;;;;;;;6.79;94.00;102758.75;5055156;28;20114;-72
2023/04/18 02:20:08;;;;;;;23.67;14.15;;;;;;;6.82;93.52;102758.53;5075463;28;20032;-73
2023/04/18 02:22:34;;;;;;;32.67;13.80;;;;;;;6.75;94.04;102756.44;5072655;28;20024;-73
2023/04/18 02:25:01;;;;;;;22.52;14.48;;;;;;;6.72;93.81;102756.69;5058696;28;20020;-74
2023/04/18 02:27:27;;;;;;;27.63;15.07;;;;;;;6.70;92.39;102755.94;5080190;28;20043;-73
2023/04/18 02:29:52;;;;;;;24.75;13.75;;;;;;;6.63;91.71;102755.56;5079088;28;20023;-73
2023/04/18 02:32:17;;;;;;;29.85;13.75;;;;;;;6.55;92.95;102754.47;5075580;28;20043;-74
2023/04/18 02:34:43;;;;;;;23.08;12.90;;;;;;;6.51;92.09;102755.72;5062864;28;20020;-73
2023/04/18 02:37:08;;;;;;;21.30;13.90;;;;;;;6.50;92.00;102748.53;5074332;28;20427;-72
2023/04/18 02:39:34;;;;;;;31.63;14.00;;;;;;;6.45;91.54;102756.19;5082249;28;20132;-73
2023/04/18 02:42:00;;;;;;;21.88;13.10;;;;;;;6.40;93.02;102753.84;5078069;28;20423;-73
2023/04/18 02:44:25;;;;;;;22.83;12.73;;;;;;;6.34;92.26;102757.06;5058971;28;20032;-73
2023/04/18 02:46:51;;;;;;;19.52;13.05;;;;;;;6.36;92.95;102763.25;5077191;28;20431;-72
2023/04/18 02:49:17;;;;;;;29.92;13.05;;;;;;;6.36;92.89;102751.53;5072706;28;20036;-73
2023/04/18 02:51:43;;;;;;;18.25;12.02;;;;;;;6.30;92.73;102754.75;5063428;28;20103;-72
2023/04/18 02:54:08;;;;;;;21.42;13.18;;;;;;;6.25;93.94;102759.69;5052747;28;20496;-73
2023/04/18 02:56:38;;;;;;;20.65;13.40;;;;;;;6.17;93.71;102752.13;5062588;28;20040;-73
2023/04/18 02:59:04;;;;;;;21.02;13.32;;;;;;;6.20;93.69;102753.75;5070715;28;20024;-74
2023/04/18 03:01:30;;;;;;;21.25;12.93;;;;;;;6.17;93.70;102762.13;5072832;28;20405;-75
2023/04/18 03:03:55;;;;;;;22.42;13.05;;;;;;;6.11;93.62;102758.06;5079836;28;20119;-72
2023/04/18 03:06:20;;;;;;;21.67;12.82;;;;;;;6.06;94.50;102757.56;5077599;28;20032;-73
2023/04/18 03:08:46;;;;;;;16.98;11.98;;;;;;;6.06;94.15;102762.13;5079382;28;20024;-73
2023/04/18 03:11:11;;;;;;;18.45;12.98;;;;;;;6.08;92.98;102762.88;5078616;28;20031;-73
2023/04/18 03:13:36;;;;;;;21.45;12.93;;;;;;;6.05;92.72;102752.22;5084186;28;20103;-73
2023/04/18 03:16:02;;;;;;;19.75;12.23;;;;;;;6.00;93.04;102757.16;5074986;28;20331;-72
2023/04/18 03:18:27;;;;;;;24.77;12.68;;;;;;;5.94;93.07;102754.94;5082920;28;20039;-73
2023/04/18 03:20:53;;;;;;;25.00;12.65;;;;;;;5.97;91.97;102755.56;5082301;28;20028;-74
2023/04/18 03:23:18;;;;;;;25.55;12.32;;;;;;;5.90;92.26;102759.75;5075900;28;20024;-73
2023/04/18 03:25:43;;;;;;;20.98;11.43;;;;;;;5.89;92.49;102757.16;5078489;28;20377;-72
2023/04/18 03:28:09;;;;;;;19.00;12.15;;;;;;;5.87;91.91;102762.69;5076929;28;20370;-72
2023/04/18 03:30:34;;;;;;;22.42;12.50;;;;;;;5.85;92.04;102763.81;5067130;28;20024;-72
2023/04/18 03:33:01;;;;;;;14.43;11.77;;;;;;;5.82;91.79;102759.47;5080379;28;20443;-72
2023/04/18 03:35:27;;;;;;;20.00;12.30;;;;;;;5.75;91.98;102762.75;5080381;28;20054;-72
2023/04/18 03:37:52;;;;;;;22.30;11.50;;;;;;;5.70;92.16;102756.81;5061385;28;20032;-72
2023/04/18 03:40:18;;;;;;;18.55;11.52;;;;;;;5.71;91.16;102762.13;5080132;28;20051;-71
2023/04/18 03:42:43;;;;;;;17.35;11.70;;;;;;;5.71;91.55;102761.28;5081208;28;20424;-72
2023/04/18 03:45:09;;;;;;;16.98;10.98;;;;;;;5.67;91.54;102762.50;5079430;28;20024;-72
2023/04/18 03:47:34;;;;;;;20.48;11.07;;;;;;;5.70;90.58;102756.81;5055342;28;20081;-72
2023/04/18 03:50:00;;;;;;;15.82;11.25;;;;;;;5.68;90.05;102756.06;5080510;28;20487;-72
2023/04/18 03:52:25;;;;;;;32.38;12.32;;;;;;;5.67;90.21;102757.06;5066567;28;20074;-72
2023/04/18 03:54:50;;;;;;;15.80;10.82;;;;;;;5.69;89.93;102765.94;5082334;28;20046;-72
2023/04/18 03:57:16;;;;;;;17.38;11.02;;;;;;;5.69;89.57;102765.94;5083469;28;20055;-72
2023/04/18 03:59:41;;;;;;;19.20;10.23;;;;;;;5.66;90.13;102766.22;5078666;28;20077;-72
2023/04/18 04:02:07;;;;;;;16.85;10.80;;;;;;;5.60;89.03;102772.97;5078771;28;20062;-72
2023/04/18 04:04:32;;;;;;;17.13;10.93;;;;;;;5.58;89.68;102765.91;5077708;28;20025;-72
2023/04/18 04:06:58;;;;;;;21.98;10.93;;;;;;;5.55;89.56;102768.91;5077514;28;20108;-73
2023/04/18 04:09:24;;;;;;;17.50;10.75;;;;;;;5.56;89.09;102768.75;5062360;28;20032;-72
2023/04/18 04:11:49;;;;;;;16.35;10.70;;;;;;;5.53;89.87;102771.72;5083818;28;20477;-72
2023/04/18 04:14:15;;;;;;;16.75;10.55;;;;;;;5.46;90.02;102769.59;5063112;28;20092;-73
2023/04/18 04:16:40;;;;;;;15.38;10.10;;;;;;;5.48;90.19;102768.50;5077366;28;20032;-72
2023/04/18 04:19:05;;;;;;;16.50;10.75;;;;;;;5.46;90.28;102762.28;5075926;28;20028;-72
2023/04/18 04:21:31;;;;;;;14.82;10.45;;;;;;;5.45;90.44;102765.16;5080656;28;20027;-72
2023/04/18 04:23:57;;;;;;;20.00;11.00;;;;;;;5.46;89.98;102766.88;5063033;28;20032;-72
2023/04/18 04:26:22;;;;;;;16.20;11.13;;;;;;;5.44;90.69;102771.56;5081743;28;20017;-72
2023/04/18 04:28:48;;;;;;;16.85;10.43;;;;;;;5.43;89.73;102767.09;5077802;28;20032;-72
2023/04/18 04:31:15;;;;;;;17.42;10.75;;;;;;;5.41;90.64;102778.09;5078268;28;20401;-72
2023/04/18 04:33:41;;;;;;;17.73;10.68;;;;;;;5.38;90.36;102769.28;5083980;28;20027;-72
2023/04/18 04:36:08;;;;;;;20.88;11.07;;;;;;;5.39;89.34;102771.06;5075215;28;20497;-73
2023/04/18 04:38:37;;;;;;;15.50;11.40;;;;;;;5.39;90.23;102765.63;5054214;28;20029;-73
2023/04/18 04:41:03;;;;;;;18.35;11.20;;;;;;;5.42;91.04;102768.09;5081443;28;20111;-73
2023/04/18 04:43:28;;;;;;;23.75;11.23;;;;;;;5.40;90.74;102775.50;5078709;28;20056;-72
2023/04/18 04:45:54;;;;;;;18.38;11.90;;;;;;;5.41;89.72;102782.66;5078958;28;20437;-72
2023/04/18 04:48:20;;;;;;;18.33;11.43;;;;;;;5.43;90.51;102775.25;5077102;28;20025;-72
2023/04/18 04:51:12;;;;;;;18.40;11.90;;;;;;;5.39;90.38;102785.47;5078750;28;20093;-73
2023/04/18 04:53:38;;;;;;;15.32;11.43;;;;;;;5.40;90.23;102783.66;5071791;28;20127;-72
2023/04/18 04:56:03;;;;;;;19.08;12.02;;;;;;;5.37;90.29;102787.47;5077077;28;20145;-73
2023/04/18 04:58:29;;;;;;;19.23;11.70;;;;;;;5.40;90.49;102783.66;5077878;28;20033;-72
2023/04/18 05:00:55;;;;;;;25.27;11.57;;;;;;;5.40;90.25;102787.22;5078288;28;20027;-72
2023/04/18 05:03:20;;;;;;;19.20;10.73;;;;;;;5.34;91.38;102786.84;5076656;28;20032;-72
2023/04/18 05:05:46;;;;;;;17.17;11.75;;;;;;;5.39;90.38;102793.63;5078703;28;20508;-73
2023/04/18 05:08:11;;;;;;;24.17;12.48;;;;;;;5.38;91.25;102791.03;5076316;28;20491;-72
2023/04/18 05:10:37;;;;;;;24.38;12.55;;;;;;;5.36;90.95;102788.44;5079451;28;20016;-72
2023/04/18 05:13:03;;;;;;;18.02;12.07;;;;;;;5.36;90.36;102793.88;5061400;28;20024;-72
2023/04/18 05:15:29;;;;;;;21.27;12.43;;;;;;;5.36;90.90;102791.16;5078020;28;20040;-76
2023/04/18 05:17:54;;;;;;;18.57;12.43;;;;;;;5.35;90.42;102797.56;5080543;28;20028;-72
2023/04/18 05:20:20;;;;;;;18.40;11.90;;;;;;;5.39;90.02;102787.34;5074800;28;20465;-73
2023/04/18 05:22:45;;;;;;;20.23;11.32;;;;;;;5.50;90.58;102792.84;5074477;28;20023;-72
2023/04/18 05:25:11;;;;;;;21.95;12.77;;;;;;;5.58;89.73;102784.94;5058267;28;20028;-73
2023/04/18 05:27:37;;;;;;;19.75;12.25;;;;;;;5.62;90.48;102795.44;5075762;28;20591;-72
2023/04/18 05:30:02;;;;;;;20.75;12.98;;;;;;;5.65;89.54;102795.22;5078219;28;20032;-72
2023/04/18 05:32:28;;;;;;;21.25;12.80;;;;;;;5.68;89.22;102794.13;5076273;28;20032;-72
2023/04/18 05:34:53;;;;;;;18.42;12.93;;;;;;;5.75;89.08;102809.84;5076612;28;20024;-73
2023/04/18 05:37:19;;;;;;;17.55;12.23;;;;;;;5.80;89.17;102809.53;5074287;28;20032;-73
2023/04/18 05:39:44;;;;;;;18.73;12.07;;;;;;;5.87;88.96;102813.53;5074405;28;20028;-72
2023/04/18 05:42:09;;;;;;;19.02;12.25;;;;;;;5.89;88.43;102803.38;5077468;28;20469;-72
2023/04/18 05:44:35;;;;;;;17.60;12.52;;;;;;;5.93;88.57;102813.03;5081028;28;20514;-72
2023/04/18 05:47:01;;;;;;;20.50;13.18;;;;;;;5.96;89.08;102816.38;5059536;28;20131;-74
2023/04/18 05:49:26;;;;;;;18.50;12.63;;;;;;;6.02;89.18;102810.47;5076324;28;20035;-72
2023/04/18 05:51:52;;;;;;;17.83;12.80;;;;;;;6.05;88.88;102812.06;5077898;28;20028;-72
2023/04/18 05:54:20;;;;;;;21.20;11.75;;;;;;;6.05;88.99;102817.50;5072588;28;20063;-72
2023/04/18 05:56:45;;;;;;;19.77;12.13;;;;;;;6.16;89.08;102821.13;5074372;28;20052;-73
2023/04/18 05:59:11;;;;;;;23.83;12.23;;;;;;;6.17;89.82;102822.88;5076548;28;20036;-73
2023/04/18 06:01:36;;;;;;;18.48;12.35;;;;;;;6.27;89.39;102828.44;5078162;28;20394;-72
2023/04/18 06:04:02;;;;;;;18.73;12.48;;;;;;;6.28;88.87;102831.03;5078315;28;20024;-73
2023/04/18 06:06:27;;;;;;;18.73;12.55;;;;;;;6.30;89.43;102825.50;5074805;28;20078;-73
2023/04/18 06:08:53;;;;;;;20.05;12.48;;;;;;;6.40;88.92;102824.63;5060037;28;20377;-73
2023/04/18 06:11:21;;;;;;;19.95;12.38;;;;;;;6.42;88.68;102810.91;5059718;28;20408;-73
2023/04/18 06:13:47;;;;;;;20.88;12.45;;;;;;;6.46;89.52;102820.56;5054370;28;20450;-72
2023/04/18 06:16:12;;;;;;;22.27;12.25;;;;;;;6.54;89.03;102820.78;5076918;28;20070;-73
2023/04/18 06:18:38;;;;;;;20.60;12.80;;;;;;;6.58;89.52;102816.84;5063029;28;20032;-73
2023/04/18 06:21:04;;;;;;;18.65;12.68;;;;;;;6.56;88.92;102813.38;5051329;28;20031;-73
2023/04/18 06:23:29;;;;;;;19.95;12.65;;;;;;;6.60;88.65;102813.00;5067446;28;20043;-73
2023/04/18 06:25:55;;;;;;;17.67;12.85;;;;;;;6.65;88.11;102820.78;5058076;28;20016;-73
2023/04/18 06:28:21;;;;;;;17.75;12.32;;;;;;;6.70;89.25;102815.84;5076045;28;20110;-73
2023/04/18 06:30:46;;;;;;;21.00;13.32;;;;;;;6.70;88.60;102822.16;5076103;28;20465;-73
2023/04/18 06:33:11;;;;;;;20.88;12.40;;;;;;;6.73;87.98;102821.06;5078077;28;20025;-73
2023/04/18 06:35:37;;;;;;;17.50;12.15;;;;;;;6.73;89.11;102823.78;5076682;28;20440;-73
2023/04/18 06:38:02;;;;;;;23.08;13.68;;;;;;;6.69;89.26;102827.72;5070572;28;20074;-73
2023/04/18 06:40:28;;;;;;;23.02;13.13;;;;;;;6.79;89.12;102815.09;5060519;28;20028;-73
2023/04/18 06:42:54;;;;;;;21.30;13.20;;;;;;;6.83;89.15;102816.59;5073850;28;20075;-73
2023/04/18 06:45:19;;;;;;;21.30;13.45;;;;;;;6.85;88.72;102828.22;5076912;28;20036;-73
2023/04/18 06:47:46;;;;;;;28.23;13.70;;;;;;;6.92;89.75;102826.72;5055873;28;20028;-73
2023/04/18 06:50:12;;;;;;;24.83;13.57;;;;;;;6.94;90.16;102827.47;5072259;28;20035;-73
2023/04/18 06:52:42;;;;;;;22.83;13.20;;;;;;;6.98;89.58;102834.38;5068296;28;20105;-73
2023/04/18 06:55:09;;;;;;;23.27;13.10;;;;;;;6.98;89.15;102826.22;5076049;28;20339;-72
2023/04/18 06:57:37;;;;;;;22.13;13.40;;;;;;;7.16;89.35;102830.16;5073574;28;20510;-73
2023/04/18 07:00:04;;;;;;;20.15;12.85;;;;;;;7.13;89.71;102834.00;5071303;28;20455;-72
2023/04/18 07:02:29;;;;;;;26.30;13.85;;;;;;;7.16;89.24;102833.75;5077309;28;20099;-72
2023/04/18 07:04:55;;;;;;;21.02;14.07;;;;;;;7.15;90.08;102832.00;5059447;28;20470;-72
2023/04/18 07:07:20;;;;;;;26.42;14.15;;;;;;;7.18;89.34;102839.94;5048650;28;20577;-72
2023/04/18 07:09:48;;;;;;;25.92;13.63;;;;;;;7.23;89.90;102836.84;5056450;28;20031;-74
2023/04/18 07:12:14;;;;;;;21.30;13.23;;;;;;;7.25;89.70;102835.72;5055165;28;20083;-72
2023/04/18 07:14:39;;;;;;;19.55;11.45;;;;;;;7.38;89.87;102830.09;5077128;28;20112;-73
2023/04/18 07:17:05;;;;;;;19.77;12.77;;;;;;;7.46;89.21;102838.50;5049918;28;20485;-73
2023/04/18 07:19:30;;;;;;;19.92;12.40;;;;;;;7.49;89.53;102830.94;5073639;28;20033;-72
2023/04/18 07:21:55;;;;;;;18.30;13.02;;;;;;;7.49;89.45;102830.94;5065210;28;20147;-72
2023/04/18 07:24:22;;;;;;;19.98;12.43;;;;;;;7.55;89.51;102835.88;5078263;28;20036;-73
2023/04/18 07:26:51;;;;;;;21.08;11.90;;;;;;;7.63;89.11;102833.38;5076344;28;20027;-73
2023/04/18 07:29:18;;;;;;;17.10;12.18;;;;;;;7.62;88.67;102819.84;5066256;28;20443;-72
2023/04/18 07:31:46;;;;;;;17.20;11.63;;;;;;;7.70;87.33;102822.81;5072035;28;20024;-72
2023/04/18 07:34:12;;;;;;;25.85;11.55;;;;;;;7.81;88.00;102823.63;5073619;28;20425;-72
2023/04/18 07:36:38;;;;;;;19.15;12.18;;;;;;;7.80;87.40;102823.75;5072192;28;20032;-71
2023/04/18 07:39:04;;;;;;;17.40;11.65;;;;;;;7.94;88.14;102834.34;5066402;28;20031;-72
2023/04/18 07:41:29;;;;;;;19.80;12.07;;;;;;;7.87;86.73;102833.13;5076504;28;20390;-72
2023/04/18 07:43:55;;;;;;;14.68;11.02;;;;;;;7.85;86.41;102836.00;5072962;28;20597;-72
2023/04/18 07:46:20;;;;;;;20.45;11.88;;;;;;;7.91;86.36;102835.47;5054837;28;20119;-73
2023/04/18 07:48:46;;;;;;;19.40;11.10;;;;;;;8.28;86.37;102833.19;5076867;28;20111;-72
2023/04/18 07:51:11;;;;;;;21.10;12.45;;;;;;;8.36;84.10;102838.84;5081352;28;20036;-73
2023/04/18 07:53:36;;;;;;;17.83;10.60;;;;;;;8.47;84.42;102833.28;5075386;28;20497;-73
2023/04/18 07:56:02;;;;;;;18.55;11.13;;;;;;;8.63;85.06;102831.81;5086824;28;20089;-72
2023/04/18 07:58:28;;;;;;;16.30;11.00;;;;;;;8.67;83.75;102829.66;5078728;28;20052;-73
2023/04/18 08:00:53;;;;;;;15.95;11.27;;;;;;;8.87;84.42;102826.03;5075900;28;20032;-72
2023/04/18 08:03:18;;;;;;;17.77;10.75;;;;;;;8.96;83.43;102830.69;5071948;28;20409;-72
2023/04/18 08:05:44;;;;;;;15.45;11.02;;;;;;;8.73;82.75;102840.03;5080473;28;20085;-72
2023/04/18 08:08:10;;;;;;;16.20;10.70;;;;;;;8.81;83.29;102830.16;5081909;28;20564;-72
2023/04/18 08:10:36;;;;;;;16.58;10.25;;;;;;;8.84;82.88;102829.03;5080552;28;20047;-72
2023/04/18 08:13:02;;;;;;;16.45;10.73;;;;;;;8.81;83.65;102838.34;5079102;28;20446;-73
2023/04/18 08:15:27;;;;;;;16.90;11.13;;;;;;;8.70;83.75;102834.88;5076214;28;20485;-72
2023/04/18 08:17:54;;;;;;;20.67;12.20;;;;;;;8.74;84.46;102828.09;5058190;28;20635;-72
2023/04/18 08:20:19;;;;;;;13.87;10.10;;;;;;;8.68;83.94;102831.41;5075537;28;20101;-72
2023/04/18 08:22:45;;;;;;;14.15;10.75;;;;;;;8.71;82.95;102826.53;5078950;28;20039;-72
2023/04/18 08:25:11;;;;;;;17.13;10.88;;;;;;;8.74;83.43;102826.25;5066440;28;20047;-72
2023/04/18 08:27:36;;;;;;;18.13;11.38;;;;;;;9.02;82.96;102833.69;5075829;28;20032;-73
2023/04/18 08:30:03;;;;;;;21.77;10.63;;;;;;;9.15;82.59;102831.59;5081048;28;20548;-72
2023/04/18 08:32:30;;;;;;;;;;;;;;;9.39;81.76;102836.69;5078873;28;20393;-73
2023/04/18 08:34:55;;;;;;;19.25;10.02;;;;;;;9.84;81.40;102836.03;5069315;28;19927;-72
2023/04/18 08:37:20;;;;;;;14.02;10.27;;;;;;;9.80;79.81;102830.94;5075744;28;20036;-72
2023/04/18 08:39:46;;;;;;;20.80;10.75;;;;;;;10.23;79.33;102836.88;5078365;28;20060;-72
2023/04/18 08:42:18;;;;;;;15.23;10.82;;;;;;;9.99;79.07;102830.97;5071933;28;20028;-73
2023/04/18 08:44:44;;;;;;;12.77;9.68;;;;;;;9.89;79.66;102833.72;5068793;28;20114;-72
2023/04/18 08:47:11;;;;;;;18.23;10.63;;;;;;;10.14;79.76;102826.81;5061508;28;20032;-72
2023/04/18 08:49:37;;;;;;;13.93;10.35;;;;;;;9.98;79.31;102827.34;5066644;28;20382;-73
2023/04/18 08:52:09;;;;;;;19.38;10.45;;;;;;;9.98;79.59;102829.25;5079345;28;20111;-73
2023/04/18 08:54:37;;;;;;;14.98;10.25;;;;;;;10.11;79.40;102827.97;5075912;28;20501;-73
2023/04/18 08:57:07;;;;;;;14.63;10.02;;;;;;;10.00;79.40;102822.63;5071440;28;20036;-73
2023/04/18 08:59:34;;;;;;;13.65;10.73;;;;;;;10.21;78.71;102830.69;5077732;28;20562;-72
2023/04/18 09:02:00;;;;;;;;;;;;;;;10.25;79.45;102827.50;5074563;28;20112;-72
2023/04/18 09:04:51;;;;;;;12.48;9.55;;;;;;;10.34;78.00;102834.84;5056927;28;20266;-73
2023/04/18 09:07:18;;;;;;;14.65;9.13;;;;;;;10.50;78.22;102834.22;5059426;28;20034;-71
2023/04/18 09:09:49;;;;;;;12.35;9.57;;;;;;;10.45;77.39;102831.06;5070136;28;20063;-73
2023/04/18 09:12:25;;;;;;;13.82;9.75;;;;;;;10.37;77.57;102829.06;5073262;28;20020;-73
2023/04/18 09:14:56;;;;;;;13.85;10.10;;;;;;;10.33;77.92;102827.63;5075713;28;20028;-72
2023/04/18 09:17:44;;;;;;;14.23;9.75;;;;;;;10.46;78.54;102833.66;5078208;28;20035;-72
2023/04/18 09:20:11;;;;;;;14.52;9.52;;;;;;;10.43;78.74;102833.09;5073158;28;20024;-72
2023/04/18 09:22:47;;;;;;;;;;;;;;;10.54;78.66;102830.16;5062725;28;20457;-73
2023/04/18 09:25:34;;;;;;;16.00;9.95;;;;;;;10.68;77.73;102821.47;5060549;28;20332;-72
2023/04/18 09:28:04;;;;;;;15.93;10.37;;;;;;;10.80;77.48;102821.16;5075231;28;20585;-72
2023/04/18 09:30:32;;;;;;;17.48;10.88;;;;;;;11.10;77.01;102834.56;5080384;28;20401;-72
2023/04/18 09:33:00;;;;;;;12.23;9.40;;;;;;;11.16;76.28;102839.44;5073860;28;20110;-71
2023/04/18 09:35:25;;;;;;;15.65;9.85;;;;;;;11.18;76.25;102829.19;5073310;28;20028;-72
2023/04/18 09:37:51;;;;;;;12.67;9.17;;;;;;;11.15;75.93;102828.63;5078601;28;20025;-71
2023/04/18 09:40:17;;;;;;;11.73;8.48;;;;;;;11.20;73.70;102834.53;5081898;28;20039;-72
2023/04/18 09:42:43;;;;;;;13.02;9.07;;;;;;;11.20;73.38;102834.53;5078887;28;20388;-72
2023/04/18 09:45:11;;;;;;;12.53;9.80;;;;;;;11.42;74.00;102812.16;5062652;28;20134;-72
2023/04/18 09:47:37;;;;;;;16.92;9.27;;;;;;;11.49;72.85;102818.72;5076894;28;20031;-72
2023/04/18 09:50:04;;;;;;;15.63;8.47;;;;;;;11.96;70.83;102815.63;5084461;28;20484;-73
2023/04/18 09:52:36;;;;;;;12.65;9.15;;;;;;;12.01;71.46;102818.75;5060065;28;20032;-72
2023/04/18 09:55:03;;;;;;;15.02;9.25;;;;;;;11.81;72.79;102814.47;5064749;28;20042;-72
2023/04/18 09:57:30;;;;;;;15.02;8.52;;;;;;;11.60;72.58;102813.06;5075222;28;20040;-74
2023/04/18 09:59:56;;;;;;;;;;;;;;;11.47;73.05;102827.13;5052569;28;20089;-72
2023/04/18 10:02:23;;;;;;;11.07;8.38;;;;;;;11.62;72.14;102814.63;5072996;28;19952;-71
2023/04/18 10:04:52;;;;;;;15.32;9.25;;;;;;;11.62;71.64;102813.75;5073618;28;20055;-72
2023/04/18 10:07:19;;;;;;;19.35;9.57;;;;;;;11.79;71.41;102800.03;5077303;28;20034;-71
2023/04/18 10:09:45;;;;;;;;;;;;;;;11.93;71.49;102798.59;5072455;28;20023;-71
2023/04/18 10:12:11;;;;;;;14.98;8.43;;;;;;;12.28;70.92;102806.81;5075207;28;19960;-72
2023/04/18 10:14:40;;;;;;;10.83;8.20;;;;;;;12.53;71.02;102804.06;5068176;28;20060;-73
2023/04/18 10:17:06;;;;;;;11.25;8.13;;;;;;;12.43;69.08;102799.69;5073745;28;20029;-72
2023/04/18 10:19:31;;;;;;;15.37;8.60;;;;;;;12.52;67.48;102798.72;5074881;28;20026;-72
2023/04/18 10:21:59;;;;;;;14.30;8.97;;;;;;;13.14;67.58;102796.47;5075123;28;20422;-71
2023/04/18 10:24:53;;;;;;;11.40;8.25;;;;;;;13.16;66.29;102790.81;5070334;28;20031;-71
2023/04/18 10:27:58;;;;;;;10.30;8.15;;;;;;;13.41;66.77;102779.72;5074149;28;20032;-72
2023/04/18 10:30:39;;;;;;;10.23;7.38;;;;;;;13.59;65.01;102796.09;5076080;28;20488;-72
2023/04/18 10:33:26;;;;;;;12.43;7.30;;;;;;;13.11;65.62;102798.69;5078218;28;20028;-72
2023/04/18 10:36:13;;;;;;;12.38;8.23;;;;;;;13.15;66.10;102789.97;5073370;28;20737;-72
2023/04/18 10:39:01;;;;;;;12.88;8.20;;;;;;;12.98;64.93;102785.41;5056622;28;20048;-72
2023/04/18 10:41:29;;;;;;;11.07;7.03;;;;;;;12.89;66.73;102780.88;5069754;28;20032;-72
2023/04/18 10:44:21;;;;;;;9.25;7.93;;;;;;;12.62;65.59;102782.97;5075456;28;20024;-71
2023/04/18 10:46:52;;;;;;;9.45;7.28;;;;;;;12.41;67.30;102785.25;5063446;28;20024;-73
2023/04/18 10:49:22;;;;;;;10.82;7.38;;;;;;;12.40;67.73;102789.03;5072917;28;21984;-72
2023/04/18 10:51:58;;;;;;;10.65;7.78;;;;;;;12.34;67.40;102790.50;5059965;28;20036;-72
2023/04/18 10:54:54;;;;;;;12.00;7.35;;;;;;;12.18;67.05;102789.56;5076279;28;20123;-71
2023/04/18 10:57:19;;;;;;;9.45;6.88;;;;;;;12.21;66.67;102778.22;5079221;28;20548;-71
2023/04/18 10:59:49;;;;;;;9.40;7.20;;;;;;;12.26;66.61;102782.22;5078314;28;20029;-71
2023/04/18 11:02:29;;;;;;;8.43;6.53;;;;;;;12.16;66.21;102772.38;5062821;28;20124;-72
2023/04/18 11:04:56;;;;;;;10.90;5.60;;;;;;;12.22;67.03;102783.56;5076698;28;20033;-71
2023/04/18 11:07:35;;;;;;;5.97;5.25;;;;;;;12.10;66.17;102781.22;5057379;28;20081;-72
2023/04/18 11:10:01;;;;;;;13.57;4.80;;;;;;;12.27;66.95;102778.44;5079148;28;20044;-72
2023/04/18 11:12:33;;;;;;;5.90;4.97;;;;;;;12.35;66.50;102777.66;5078682;28;20059;-73
2023/04/18 11:15:00;;;;;;;6.95;5.57;;;;;;;12.32;65.80;102772.50;5076344;28;20043;-73
2023/04/18 11:17:31;;;;;;;7.82;4.85;;;;;;;12.18;65.41;102765.66;5078650;28;20047;-72